createdAt,value
2019-05-29T00:00:28.076Z,17.53
2019-05-29T00:02:56.634Z,13.67
2019-05-29T00:05:25.099Z,15.03
2019-05-29T00:07:53.672Z,11.27
2019-05-29T00:10:22.258Z,14.23
2019-05-29T00:12:50.748Z,10.40
2019-05-29T00:15:19.222Z,11.40
2019-05-29T00:17:47.713Z,11.37
2019-05-29T00:20:16.400Z,10.77
2019-05-29T00:22:44.977Z,11.43
2019-05-29T00:25:14.710Z,13.60
2019-05-29T00:27:43.406Z,10.53
2019-05-29T00:30:13.387Z,9.77
2019-05-29T00:32:42.119Z,10.57
2019-05-29T00:35:10.701Z,10.83
2019-05-29T00:37:39.257Z,10.43
2019-05-29T00:40:08.965Z,8.87
2019-05-29T00:42:37.790Z,11.23
2019-05-29T00:45:09.637Z,13.47
2019-05-29T00:47:38.421Z,11.20
2019-05-29T00:50:07.996Z,10.53
2019-05-29T00:52:36.741Z,12.87
2019-05-29T00:55:06.003Z,13.27
2019-05-29T00:57:34.446Z,11.13
2019-05-29T01:00:03.462Z,10.27
2019-05-29T01:02:32.031Z,10.43
2019-05-29T01:05:00.464Z,9.93
2019-05-29T01:07:29.036Z,17.80
2019-05-29T01:09:57.618Z,9.30
2019-05-29T01:12:26.069Z,11.27
2019-05-29T01:14:54.598Z,9.73
2019-05-29T01:17:23.151Z,10.83
2019-05-29T01:19:51.637Z,11.43
2019-05-29T01:22:20.366Z,11.00
2019-05-29T01:24:48.866Z,11.00
2019-05-29T01:27:17.407Z,9.43
2019-05-29T01:29:45.871Z,14.83
2019-05-29T01:32:15.479Z,12.03
2019-05-29T01:34:44.170Z,10.00
2019-05-29T01:37:13.897Z,12.40
2019-05-29T01:39:42.744Z,9.93
2019-05-29T01:42:11.204Z,10.03
2019-05-29T01:44:39.747Z,9.97
2019-05-29T01:47:08.204Z,10.30
2019-05-29T01:49:36.724Z,12.93
2019-05-29T01:52:05.300Z,11.80
2019-05-29T01:54:33.857Z,8.20
2019-05-29T01:57:02.325Z,12.47
2019-05-29T01:59:30.961Z,8.87
2019-05-29T02:01:59.552Z,10.73
2019-05-29T02:04:28.222Z,12.23
2019-05-29T02:06:56.720Z,12.87
2019-05-29T02:09:25.245Z,10.70
2019-05-29T02:11:53.818Z,9.87
2019-05-29T02:14:22.718Z,10.67
2019-05-29T02:16:51.358Z,14.13
2019-05-29T02:19:20.015Z,14.93
2019-05-29T02:21:48.609Z,12.70
2019-05-29T02:24:17.106Z,10.80
2019-05-29T02:26:45.518Z,11.03
2019-05-29T02:29:14.021Z,10.27
2019-05-29T02:31:42.608Z,12.57
2019-05-29T02:34:11.238Z,11.17
2019-05-29T02:36:39.832Z,10.50
2019-05-29T02:39:08.343Z,11.53
2019-05-29T02:41:36.823Z,14.33
2019-05-29T02:44:05.403Z,11.40
2019-05-29T02:46:33.928Z,13.50
2019-05-29T02:49:02.366Z,9.83
2019-05-29T02:51:31.240Z,9.30
2019-05-29T02:53:59.689Z,13.07
2019-05-29T02:56:29.032Z,11.00
2019-05-29T02:58:57.762Z,9.87
2019-05-29T03:01:27.812Z,11.63
2019-05-29T03:03:56.548Z,12.93
2019-05-29T03:06:26.251Z,14.63
2019-05-29T03:08:54.982Z,12.97
2019-05-29T03:11:25.055Z,16.20
2019-05-29T03:13:53.661Z,11.17
2019-05-29T03:16:23.941Z,11.47
2019-05-29T03:18:52.371Z,13.97
2019-05-29T03:21:21.149Z,14.83
2019-05-29T03:23:49.656Z,13.20
2019-05-29T03:26:18.226Z,15.37
2019-05-29T03:28:46.883Z,12.80
2019-05-29T03:31:15.629Z,14.43
2019-05-29T03:33:49.006Z,13.80
2019-05-29T03:36:14.431Z,10.60
2019-05-29T03:38:43.244Z,15.27
2019-05-29T03:41:11.872Z,14.13
2019-05-29T03:43:40.366Z,13.27
2019-05-29T03:46:26.541Z,12.57
2019-05-29T03:48:39.091Z,13.83
2019-05-29T03:51:07.547Z,16.07
2019-05-29T03:53:38.222Z,15.03
2019-05-29T03:56:06.377Z,14.00
2019-05-29T03:58:35.276Z,14.87
2019-05-29T04:01:04.366Z,14.83
2019-05-29T04:03:33.460Z,12.27
2019-05-29T04:06:02.977Z,14.23
2019-05-29T04:08:31.551Z,12.70
2019-05-29T04:11:00.494Z,13.30
2019-05-29T04:13:29.595Z,11.60
2019-05-29T04:15:58.706Z,14.80
2019-05-29T04:18:27.624Z,14.40
2019-05-29T04:20:56.287Z,16.30
2019-05-29T04:23:24.698Z,14.63
2019-05-29T04:25:54.215Z,15.67
2019-05-29T04:28:22.671Z,14.30
2019-05-29T04:30:51.176Z,14.50
2019-05-29T04:33:19.636Z,14.10
2019-05-29T04:35:48.090Z,13.87
2019-05-29T04:38:16.568Z,13.50
2019-05-29T04:40:45.006Z,15.30
2019-05-29T04:43:13.515Z,12.33
2019-05-29T04:45:42.134Z,14.13
2019-05-29T04:48:10.620Z,15.53
2019-05-29T04:50:40.708Z,12.47
2019-05-29T04:53:09.243Z,13.53
2019-05-29T04:55:38.933Z,14.27
2019-05-29T04:58:07.643Z,13.80
2019-05-29T05:00:37.292Z,13.57
2019-05-29T05:03:09.754Z,15.53
2019-05-29T05:05:38.029Z,13.60
2019-05-29T05:08:09.492Z,13.70
2019-05-29T05:10:41.610Z,15.47
2019-05-29T05:13:10.202Z,15.77
2019-05-29T05:15:39.974Z,15.77
2019-05-29T05:18:08.699Z,15.27
2019-05-29T05:20:38.276Z,16.03
2019-05-29T05:23:07.081Z,12.67
2019-05-29T05:25:36.383Z,13.17
2019-05-29T05:28:05.191Z,15.40
2019-05-29T05:30:34.371Z,23.53
2019-05-29T05:33:03.073Z,16.87
2019-05-29T05:35:32.609Z,17.47
2019-05-29T05:38:01.308Z,17.00
2019-05-29T05:40:30.758Z,15.63
2019-05-29T05:43:24.241Z,15.17
2019-05-29T05:45:49.372Z,14.73
2019-05-29T05:48:18.173Z,19.63
2019-05-29T05:50:46.762Z,15.83
2019-05-29T05:53:15.256Z,17.47
2019-05-29T05:55:43.762Z,13.90
2019-05-29T05:58:12.226Z,20.17
2019-05-29T06:00:41.935Z,18.03
2019-05-29T06:03:10.697Z,17.63
2019-05-29T06:05:40.220Z,15.20
2019-05-29T06:08:08.803Z,15.23
2019-05-29T06:10:38.183Z,17.83
2019-05-29T06:13:13.171Z,17.30
2019-05-29T06:15:49.296Z,20.07
2019-05-29T06:18:28.105Z,17.77
2019-05-29T06:21:06.951Z,19.43
2019-05-29T06:23:36.901Z,20.60
2019-05-29T06:26:06.687Z,19.13
2019-05-29T06:28:44.969Z,16.53
2019-05-29T06:31:13.490Z,19.83
2019-05-29T06:33:42.039Z,20.60
2019-05-29T06:36:10.603Z,20.30
2019-05-29T06:38:40.449Z,19.67
2019-05-29T06:41:09.486Z,21.07
2019-05-29T06:43:45.933Z,15.40
2019-05-29T06:46:14.402Z,22.77
2019-05-29T06:48:58.650Z,19.47
2019-05-29T06:51:15.061Z,17.47
2019-05-29T06:53:43.918Z,23.30
2019-05-29T06:56:12.878Z,25.10
2019-05-29T06:58:42.239Z,22.10
2019-05-29T07:01:11.050Z,21.87
2019-05-29T07:03:39.716Z,22.63
2019-05-29T07:06:08.417Z,22.57
2019-05-29T07:08:40.022Z,25.93
2019-05-29T07:11:07.404Z,23.20
2019-05-29T07:13:37.783Z,21.10
2019-05-29T07:16:06.275Z,20.13
2019-05-29T07:18:34.795Z,21.93
2019-05-29T07:21:03.435Z,20.03
2019-05-29T07:23:32.098Z,26.17
2019-05-29T07:26:00.679Z,22.60
2019-05-29T07:28:29.217Z,18.33
2019-05-29T07:31:02.821Z,24.13
2019-05-29T07:33:27.962Z,25.90
2019-05-29T07:35:56.475Z,21.50
2019-05-29T07:38:24.919Z,22.50
2019-05-29T07:40:53.419Z,25.97
2019-05-29T07:43:21.887Z,24.60
2019-05-29T07:45:50.502Z,29.23
2019-05-29T07:48:19.124Z,21.80
2019-05-29T07:50:48.465Z,20.53
2019-05-29T07:53:17.786Z,22.90
2019-05-29T07:55:46.769Z,21.90
2019-05-29T07:58:15.367Z,20.13
2019-05-29T08:01:06.836Z,19.90
2019-05-29T08:03:14.431Z,22.60
2019-05-29T08:05:46.194Z,19.23
2019-05-29T08:08:13.237Z,21.90
2019-05-29T08:10:41.855Z,20.60
2019-05-29T08:13:10.283Z,25.80
2019-05-29T08:15:55.038Z,22.70
2019-05-29T08:18:08.886Z,35.23
2019-05-29T08:20:37.345Z,22.63
2019-05-29T08:23:05.925Z,19.40
2019-05-29T08:25:34.642Z,19.20
2019-05-29T08:28:03.095Z,19.63
2019-05-29T08:30:31.744Z,18.00
2019-05-29T08:33:00.367Z,16.03
2019-05-29T08:35:29.104Z,17.87
2019-05-29T08:37:57.706Z,22.27
2019-05-29T08:40:26.226Z,17.53
2019-05-29T08:42:57.779Z,15.73
2019-05-29T08:45:26.302Z,17.30
2019-05-29T08:47:54.865Z,17.43
2019-05-29T08:50:23.488Z,16.00
2019-05-29T08:52:52.323Z,16.57
2019-05-29T08:55:21.009Z,28.87
2019-05-29T08:57:50.442Z,29.40
2019-05-29T09:00:19.180Z,23.83
2019-05-29T09:02:49.248Z,24.93
2019-05-29T09:05:17.723Z,23.30
2019-05-29T09:07:47.822Z,18.13
2019-05-29T09:10:16.385Z,17.93
2019-05-29T09:12:50.151Z,18.00
2019-05-29T09:15:20.904Z,16.80
2019-05-29T09:17:45.326Z,18.03
2019-05-29T09:20:31.097Z,18.63
2019-05-29T09:22:44.070Z,14.17
2019-05-29T09:25:13.688Z,14.60
2019-05-29T09:27:42.710Z,16.13
2019-05-29T09:30:11.186Z,18.73
2019-05-29T09:32:49.962Z,13.53
2019-05-29T09:35:09.903Z,15.33
2019-05-29T09:37:38.353Z,13.03
2019-05-29T09:40:08.535Z,16.13
2019-05-29T09:42:37.019Z,12.57
2019-05-29T09:45:06.677Z,19.47
2019-05-29T09:47:35.131Z,17.70
2019-05-29T09:50:06.745Z,15.73
2019-05-29T09:52:35.232Z,15.93
2019-05-29T09:55:05.656Z,15.37
2019-05-29T09:57:34.242Z,17.70
2019-05-29T10:00:04.232Z,18.23
2019-05-29T10:02:33.140Z,16.57
2019-05-29T10:05:02.940Z,17.47
2019-05-29T10:07:31.767Z,18.20
2019-05-29T10:10:01.096Z,14.47
2019-05-29T10:12:30.446Z,16.67
2019-05-29T10:14:59.587Z,17.67
2019-05-29T10:17:29.031Z,15.70
2019-05-29T10:19:58.878Z,15.90
2019-05-29T10:22:27.495Z,16.53
2019-05-29T10:24:56.743Z,15.87
2019-05-29T10:27:26.174Z,17.00
2019-05-29T10:29:54.679Z,16.33
2019-05-29T10:32:23.415Z,18.27
2019-05-29T10:34:52.704Z,16.47
2019-05-29T10:37:21.325Z,16.23
2019-05-29T10:39:50.988Z,20.80
2019-05-29T10:42:20.754Z,20.10
2019-05-29T10:44:51.158Z,17.27
2019-05-29T10:47:19.918Z,16.30
2019-05-29T10:49:49.697Z,18.47
2019-05-29T10:52:18.385Z,15.03
2019-05-29T10:54:46.849Z,16.77
2019-05-29T10:57:15.422Z,15.13
2019-05-29T10:59:46.607Z,18.33
2019-05-29T11:02:15.274Z,14.90
2019-05-29T11:04:47.620Z,17.33
2019-05-29T11:07:13.827Z,14.90
2019-05-29T11:09:44.925Z,12.77
2019-05-29T11:12:12.612Z,11.63
2019-05-29T11:14:41.050Z,13.33
2019-05-29T11:17:09.559Z,12.63
2019-05-29T11:19:38.088Z,12.90
2019-05-29T11:22:25.210Z,10.60
2019-05-29T11:24:36.800Z,13.07
2019-05-29T11:27:05.426Z,14.60
2019-05-29T11:29:34.021Z,14.67
2019-05-29T11:32:02.659Z,14.07
2019-05-29T11:34:31.174Z,13.07
2019-05-29T11:36:59.771Z,15.17
2019-05-29T11:39:28.350Z,14.47
2019-05-29T11:41:56.906Z,15.73
2019-05-29T11:44:25.324Z,14.13
2019-05-29T11:46:54.226Z,13.23
2019-05-29T11:49:23.276Z,15.53
2019-05-29T11:51:53.632Z,14.57
2019-05-29T11:54:23.789Z,15.70
2019-05-29T11:56:53.664Z,16.10
2019-05-29T11:59:22.506Z,17.23
2019-05-29T12:01:52.550Z,18.37
2019-05-29T12:04:26.248Z,18.23
2019-05-29T12:06:51.332Z,22.07
2019-05-29T12:09:32.130Z,25.60
2019-05-29T12:11:51.621Z,18.50
2019-05-29T12:14:20.299Z,27.93
2019-05-29T12:16:48.841Z,22.40
2019-05-29T12:19:17.335Z,22.30
2019-05-29T12:21:45.779Z,23.70
2019-05-29T12:24:14.240Z,22.83
2019-05-29T12:26:43.150Z,20.73
2019-05-29T12:29:12.111Z,20.03
2019-05-29T12:31:40.834Z,21.70
2019-05-29T12:34:18.746Z,18.63
2019-05-29T12:36:39.481Z,24.43
2019-05-29T12:39:08.105Z,18.43
2019-05-29T12:41:36.599Z,21.33
2019-05-29T12:44:05.060Z,19.13
2019-05-29T12:46:33.768Z,18.73
2019-05-29T12:49:03.683Z,18.67
2019-05-29T12:51:32.527Z,16.23
2019-05-29T12:54:02.292Z,19.27
2019-05-29T12:56:30.939Z,18.00
2019-05-29T12:59:00.522Z,16.33
2019-05-29T13:01:29.320Z,17.87
2019-05-29T13:03:58.678Z,21.13
2019-05-29T13:06:27.717Z,17.43
2019-05-29T13:08:56.398Z,16.07
2019-05-29T13:11:25.102Z,14.83
2019-05-29T13:13:54.369Z,16.70
2019-05-29T13:16:23.515Z,17.23
2019-05-29T13:18:52.146Z,18.77
2019-05-29T13:21:20.789Z,12.93
2019-05-29T13:23:49.324Z,11.30
2019-05-29T13:26:17.945Z,15.47
2019-05-29T13:28:46.564Z,15.70
2019-05-29T13:31:15.221Z,18.93
2019-05-29T13:33:43.958Z,18.23
2019-05-29T13:36:12.482Z,14.83
2019-05-29T13:38:40.959Z,13.80
2019-05-29T13:41:09.499Z,14.33
2019-05-29T13:43:38.198Z,12.67
2019-05-29T13:46:06.672Z,12.87
2019-05-29T13:48:35.734Z,16.37
2019-05-29T13:51:05.532Z,13.80
2019-05-29T13:53:34.270Z,14.67
2019-05-29T13:56:04.115Z,13.17
2019-05-29T13:58:33.194Z,12.63
2019-05-29T14:01:02.469Z,12.30
2019-05-29T14:03:31.066Z,13.50
2019-05-29T14:06:00.783Z,13.03
2019-05-29T14:08:32.407Z,12.23
2019-05-29T14:11:03.437Z,11.90
2019-05-29T14:13:31.361Z,10.57
2019-05-29T14:16:00.554Z,12.20
2019-05-29T14:18:29.348Z,12.50
2019-05-29T14:20:58.077Z,13.70
2019-05-29T14:23:26.734Z,11.50
2019-05-29T14:25:55.363Z,11.40
2019-05-29T14:28:23.852Z,9.60
2019-05-29T14:30:52.417Z,12.63
2019-05-29T14:33:20.935Z,9.23
2019-05-29T14:35:49.487Z,9.20
2019-05-29T14:38:18.041Z,11.73
2019-05-29T14:40:46.849Z,10.90
2019-05-29T14:43:15.795Z,8.47
2019-05-29T14:45:44.356Z,10.57
2019-05-29T14:48:13.235Z,9.33
2019-05-29T14:50:42.035Z,10.73
2019-05-29T14:53:11.404Z,8.13
2019-05-29T14:55:40.506Z,8.50
2019-05-29T14:58:09.825Z,9.90
2019-05-29T15:00:38.453Z,7.80
2019-05-29T15:03:07.406Z,9.80
2019-05-29T15:05:36.022Z,8.43
2019-05-29T15:08:05.687Z,7.27
2019-05-29T15:10:34.420Z,8.33
2019-05-29T15:13:04.243Z,7.83
2019-05-29T15:15:32.891Z,6.63
2019-05-29T15:18:01.343Z,7.63
2019-05-29T15:20:29.925Z,8.10
2019-05-29T15:22:58.514Z,7.47
2019-05-29T15:25:26.983Z,6.97
2019-05-29T15:27:55.473Z,7.53
2019-05-29T15:30:24.115Z,5.97
2019-05-29T15:32:52.835Z,6.20
2019-05-29T15:35:21.373Z,5.93
2019-05-29T15:37:49.853Z,7.80
2019-05-29T15:40:18.555Z,6.40
2019-05-29T15:42:47.064Z,8.83
2019-05-29T15:45:18.223Z,3.80
2019-05-29T15:47:46.997Z,4.63
2019-05-29T15:50:16.172Z,3.77
2019-05-29T15:52:45.866Z,5.70
2019-05-29T15:55:32.216Z,5.07
2019-05-29T15:57:44.672Z,4.80
2019-05-29T16:00:13.978Z,5.20
2019-05-29T16:02:42.773Z,5.63
2019-05-29T16:05:13.107Z,3.13
2019-05-29T16:07:43.706Z,6.67
2019-05-29T16:10:14.814Z,2.97
2019-05-29T16:12:42.892Z,5.10
2019-05-29T16:15:13.079Z,7.77
2019-05-29T16:17:41.834Z,4.43
2019-05-29T16:20:10.595Z,6.60
2019-05-29T16:22:39.519Z,5.23
2019-05-29T16:25:08.194Z,5.37
2019-05-29T16:27:36.653Z,6.23
2019-05-29T16:30:08.182Z,4.83
2019-05-29T16:32:36.742Z,4.97
2019-05-29T16:35:06.335Z,4.37
2019-05-29T16:37:34.875Z,4.47
2019-05-29T16:40:05.040Z,5.83
2019-05-29T16:42:33.728Z,5.20
2019-05-29T16:45:02.410Z,6.17
2019-05-29T16:47:31.049Z,3.70
2019-05-29T16:49:59.842Z,4.43
2019-05-29T16:52:28.371Z,6.07
2019-05-29T16:54:56.985Z,3.50
2019-05-29T16:57:25.506Z,5.00
2019-05-29T16:59:53.947Z,4.80
2019-05-29T17:02:23.691Z,3.20
2019-05-29T17:04:52.436Z,5.70
2019-05-29T17:07:22.085Z,3.93
2019-05-29T17:09:50.634Z,3.63
2019-05-29T17:12:20.412Z,3.20
2019-05-29T17:14:48.979Z,3.20
2019-05-29T17:17:19.116Z,3.67
2019-05-29T17:19:47.601Z,3.10
2019-05-29T17:22:16.589Z,2.77
2019-05-29T17:24:45.274Z,4.67
2019-05-29T17:27:14.546Z,3.23
2019-05-29T17:29:43.158Z,4.83
2019-05-29T17:32:11.886Z,2.90
2019-05-29T17:34:40.323Z,6.17
2019-05-29T17:37:08.839Z,5.73
2019-05-29T17:39:37.428Z,8.10
2019-05-29T17:42:06.014Z,4.80
2019-05-29T17:44:34.572Z,3.73
2019-05-29T17:47:03.198Z,3.60
2019-05-29T17:49:34.570Z,5.97
2019-05-29T17:52:02.908Z,5.03
2019-05-29T17:54:31.489Z,8.03
2019-05-29T17:56:59.939Z,5.57
2019-05-29T17:59:28.483Z,4.40
2019-05-29T18:01:57.125Z,4.00
2019-05-29T18:04:26.767Z,5.67
2019-05-29T18:06:56.623Z,5.13
2019-05-29T18:09:27.962Z,4.50
2019-05-29T18:11:55.654Z,6.63
2019-05-29T18:14:25.280Z,5.27
2019-05-29T18:16:53.949Z,5.30
2019-05-29T18:19:23.751Z,4.70
2019-05-29T18:21:52.401Z,3.70
2019-05-29T18:24:21.629Z,4.90
2019-05-29T18:26:50.480Z,3.83
2019-05-29T18:29:20.096Z,4.50
2019-05-29T18:31:48.839Z,4.87
2019-05-29T18:34:18.648Z,5.77
2019-05-29T18:36:47.365Z,9.17
2019-05-29T18:39:15.897Z,3.17
2019-05-29T18:41:44.495Z,4.73
2019-05-29T18:44:13.038Z,4.23
2019-05-29T18:46:41.581Z,8.03
2019-05-29T18:49:14.354Z,4.27
2019-05-29T18:51:40.489Z,3.10
2019-05-29T18:54:09.044Z,4.73
2019-05-29T18:56:37.585Z,5.50
2019-05-29T18:59:06.028Z,3.10
2019-05-29T19:01:34.543Z,2.97
2019-05-29T19:04:03.023Z,2.67
2019-05-29T19:06:31.878Z,3.50
2019-05-29T19:09:00.467Z,4.50
2019-05-29T19:11:29.953Z,4.00
2019-05-29T19:13:58.595Z,2.90
2019-05-29T19:16:28.018Z,4.70
2019-05-29T19:18:56.736Z,4.77
2019-05-29T19:21:26.313Z,4.20
2019-05-29T19:23:55.070Z,4.20
2019-05-29T19:26:24.736Z,6.67
2019-05-29T19:28:53.367Z,5.67
2019-05-29T19:31:22.998Z,5.17
2019-05-29T19:33:51.670Z,4.23
2019-05-29T19:36:20.090Z,6.93
2019-05-29T19:38:48.894Z,4.00
2019-05-29T19:41:17.474Z,4.27
2019-05-29T19:43:45.944Z,4.33
2019-05-29T19:46:14.546Z,5.73
2019-05-29T19:48:43.007Z,5.30
2019-05-29T19:51:11.570Z,4.57
2019-05-29T19:53:40.019Z,5.87
2019-05-29T19:56:08.573Z,6.53
2019-05-29T19:58:37.046Z,6.03
2019-05-29T20:01:05.593Z,4.57
2019-05-29T20:03:34.646Z,7.47
2019-05-29T20:06:03.462Z,7.03
2019-05-29T20:08:34.572Z,6.77
2019-05-29T20:11:02.194Z,6.43
2019-05-29T20:13:31.697Z,5.23
2019-05-29T20:16:00.351Z,5.97
2019-05-29T20:18:29.991Z,7.83
2019-05-29T20:20:58.495Z,5.00
2019-05-29T20:23:27.027Z,4.13
2019-05-29T20:25:55.579Z,4.77
2019-05-29T20:28:24.006Z,5.90
2019-05-29T20:30:52.520Z,5.73
2019-05-29T20:33:20.991Z,7.77
2019-05-29T20:35:49.473Z,7.50
2019-05-29T20:38:17.943Z,5.60
2019-05-29T20:40:46.627Z,10.30
2019-05-29T20:43:15.139Z,5.43
2019-05-29T20:45:43.730Z,9.20
2019-05-29T20:48:12.226Z,5.20
2019-05-29T20:50:40.664Z,5.03
2019-05-29T20:53:09.199Z,5.90
2019-05-29T20:55:37.975Z,6.30
2019-05-29T20:58:23.173Z,7.70
2019-05-29T21:00:38.278Z,5.97
2019-05-29T21:03:08.242Z,6.07
2019-05-29T21:05:36.795Z,4.80
2019-05-29T21:08:05.269Z,5.33
2019-05-29T21:10:35.017Z,8.20
2019-05-29T21:13:03.598Z,5.07
2019-05-29T21:15:38.073Z,6.40
2019-05-29T21:18:06.763Z,8.37
2019-05-29T21:20:36.184Z,5.03
2019-05-29T21:23:04.867Z,9.30
2019-05-29T21:25:34.582Z,5.33
2019-05-29T21:28:06.751Z,8.40
2019-05-29T21:30:35.605Z,4.97
2019-05-29T21:33:04.265Z,8.07
2019-05-29T21:35:32.726Z,7.67
2019-05-29T21:38:01.210Z,6.87
2019-05-29T21:40:29.749Z,5.33
2019-05-29T21:42:58.506Z,5.43
2019-05-29T21:45:27.282Z,6.43
2019-05-29T21:47:55.803Z,6.73
2019-05-29T21:50:24.460Z,8.23
2019-05-29T21:52:52.935Z,7.37
2019-05-29T21:55:21.552Z,5.17
2019-05-29T21:57:50.413Z,5.87
2019-05-29T22:00:29.682Z,6.77
2019-05-29T22:02:58.120Z,6.93
2019-05-29T22:05:26.647Z,6.60
2019-05-29T22:07:55.089Z,8.57
2019-05-29T22:10:26.173Z,10.73
2019-05-29T22:12:54.473Z,8.93
2019-05-29T22:15:23.057Z,5.93
2019-05-29T22:17:52.840Z,6.83
2019-05-29T22:20:21.462Z,5.40
2019-05-29T22:22:50.970Z,5.20
2019-05-29T22:25:19.654Z,6.50
2019-05-29T22:27:48.266Z,7.77
2019-05-29T22:30:16.695Z,5.80
2019-05-29T22:32:45.251Z,6.03
2019-05-29T22:35:13.758Z,7.73
2019-05-29T22:37:42.223Z,6.57
2019-05-29T22:40:10.774Z,6.77
2019-05-29T22:42:39.214Z,6.77
2019-05-29T22:45:07.697Z,7.80
2019-05-29T22:47:36.177Z,9.40
2019-05-29T22:50:06.623Z,6.57
2019-05-29T22:52:35.139Z,5.97
2019-05-29T22:55:04.851Z,8.23
2019-05-29T22:57:33.331Z,11.93
2019-05-29T23:00:02.466Z,7.07
2019-05-29T23:02:31.108Z,8.73
2019-05-29T23:05:00.536Z,7.70
2019-05-29T23:07:29.254Z,8.50
2019-05-29T23:09:58.306Z,7.43
2019-05-29T23:12:26.944Z,7.67
2019-05-29T23:14:56.319Z,6.37
2019-05-29T23:17:24.983Z,6.97
2019-05-29T23:19:54.576Z,5.13
2019-05-29T23:22:24.653Z,7.00
2019-05-29T23:24:54.736Z,5.73
2019-05-29T23:27:23.432Z,5.77
2019-05-29T23:29:52.665Z,4.43
2019-05-29T23:32:21.339Z,5.83
2019-05-29T23:34:49.891Z,6.83
2019-05-29T23:37:18.421Z,8.47
2019-05-29T23:39:46.861Z,7.80
2019-05-29T23:42:15.422Z,5.70
2019-05-29T23:44:43.866Z,7.33
2019-05-29T23:47:12.307Z,8.20
2019-05-29T23:49:40.863Z,6.97
2019-05-29T23:52:09.312Z,9.20
2019-05-29T23:54:37.860Z,7.23
2019-05-29T23:57:06.436Z,8.33
2019-05-29T23:59:34.893Z,7.03
